Wilmington, OH

6:23 AM EST on February 22, 2017 (GMT -0500)
2.2 N Wilmington | | Change Station

Elev 1053 ft 39.47 °N, 83.84 °W | Updated 9 minutes ago

Rain
Rain
54.5 °F
Feels Like 54.5 °F
N
4.0
Wind Variable Wind from WSW
Gusts 7.0 mph

Today
High -- | Low -- °F
--% Chance of Precip.
Yesterday
High -- | Low -- °F
Precip. -- in
Pressure 29.93 in
Visibility 1.5 miles
Clouds Mostly Cloudy 600 ft
Overcast 900 ft
Dew Point 54 °F
Humidity 97%
Rainfall 0.02 in
Snow Depth Not available.
7:17 AM 6:20 PM
Waning Crescent, 18% visible
SPECI KILN 221106Z AUTO 19004KT 1 1/2SM BR BKN006 OVC009 12/12 A2993 RMK AO2 CIG 002V007 P0001 T01220122
Pressure 29.93 in
Visibility 1.5 miles
Clouds Mostly Cloudy 600 ft
Overcast 900 ft
Dew Point 54 °F
Humidity 97%
Rainfall 0.02 in
Snow Depth Not available.
7:17 AM 6:20 PM
Waning Crescent, 18% visible
SPECI KILN 221106Z AUTO 19004KT 1 1/2SM BR BKN006 OVC009 12/12 A2993 RMK AO2 CIG 002V007 P0001 T01220122

Get Your Daily Forecast Email!

Thanks for signing up!

Be on the lookout for a verification email in your inbox.

You'll start receiving the daily forecast at 8 AM.

×

10-Day Weather Forecast

Almanac

Astronomy

Feb. 22, 2017 Rise Set
Actual Time
Civil Twilight
Nautical Twilight
Astronomical Twilight
Moon
Length of Visible Light
Length of Day
Tomorrow will be .
, % of the Moon is Illuminated

Today's Extremes

State Highs State Lows

Community

WunderPhotos

Upload Photos

1,962,540 photos uploaded!

WunderBlog® & News

Nearby

Air Quality

  Air Quality AQ Index Pollutant
Not available.

Snow Depth

Station Depth Elevation

Earthquake Activity

City Distance Mag. Time & Date
Minimum magnitude displayed is 2.5.

Coastal Water Temperatures

Place Temperature

Stations

Nearby Weather Stations

Station Location Temp. Windchill Dew Point Humidity Wind Precip. Elev Updated Type
                   

Watches & Warnings

There are currently no watches in effect.